Tiverton, RI (02878)

2:25 AM EDT on June 25, 2017 (GMT -0400)
Village at Mount Hope Bay | | Change Station

Elev 95 ft 41.65 °N, 71.20 °W | Updated 57 seconds ago

Partly Cloudy
Partly Cloudy
68.7 °F
Feels Like 68.7 °F
N
2.0
Wind Variable Wind from NNW
Gusts 6.0 mph

Today
High -- | Low -- °F
--% Chance of Precip.
Yesterday
High -- | Low -- °F
Precip. -- in
Pressure 29.89 in
Visibility 10.0 miles
Clouds Scattered Clouds 9000 ft
Dew Point 58 °F
Humidity 69%
Rainfall 0.00 in
Snow Depth Not available.
5:11 AM 8:23 PM
New Moon, 2% visible
METAR KUUU 250553Z AUTO 28004KT 10SM SCT090 20/15 A2989 RMK AO2 SLP120 T02000150 10256 20189 53011
Pressure 29.89 in
Visibility 10.0 miles
Clouds Scattered Clouds 9000 ft
Dew Point 58 °F
Humidity 69%
Rainfall 0.00 in
Snow Depth Not available.
5:11 AM 8:23 PM
New Moon, 2% visible
METAR KUUU 250553Z AUTO 28004KT 10SM SCT090 20/15 A2989 RMK AO2 SLP120 T02000150 10256 20189 53011

Get Severe Weather Alerts

Thanks for signing up!

Be on the lookout for a verification email in your inbox.

You'll start receiving the daily forecast at 6 AM.

×

10-Day Weather Forecast

Almanac

Astronomy

Jun. 25, 2017 Rise Set
Actual Time
Civil Twilight
Nautical Twilight
Astronomical Twilight
Moon
Length of Visible Light
Length of Day
Tomorrow will be .
, % of the Moon is Illuminated

Today's Extremes

State Highs State Lows

Community

WunderPhotos

Category 6

Welcome to Category 6. This is the collective home for Weather Underground's featured writeups by Dr. Jeff Masters (right), Bob Henson (left), Chris Burt, and other regular contributors.

Nearby

Air Quality

  Air Quality AQ Index Pollutant
Not available.

Snow Depth

Station Depth Elevation

Earthquake Activity

City Distance Mag. Time & Date
Minimum magnitude displayed is 2.5.

Coastal Water Temperatures

Place Temperature

Stations

Nearby Weather Stations

Station Location Temp. Windchill Dew Point Humidity Wind Precip. Elev Updated Type
                   

Watches & Warnings

There are currently no watches in effect.